sensor_id;sensor_type;location;lat;lon;timestamp;pressure;altitude;pressure_sealevel;temperature;humidity
43125;BME280;49182;50.788;7.318;2024-02-15T00:02:13;101122.59;;;10.67;100.00
43125;BME280;49182;50.788;7.318;2024-02-15T00:07:16;101125.91;;;10.69;100.00
43125;BME280;49182;50.788;7.318;2024-02-15T00:12:18;101135.78;;;10.67;100.00
43125;BME280;49182;50.788;7.318;2024-02-15T00:17:20;101142.50;;;10.71;100.00
43125;BME280;49182;50.788;7.318;2024-02-15T00:22:23;101135.78;;;10.67;100.00
43125;BME280;49182;50.788;7.318;2024-02-15T00:27:25;101135.28;;;10.62;100.00
43125;BME280;49182;50.788;7.318;2024-02-15T00:32:26;101130.38;;;10.58;100.00
43125;BME280;49182;50.788;7.318;2024-02-15T00:37:30;101140.34;;;10.65;100.00
43125;BME280;49182;50.788;7.318;2024-02-15T00:42:32;101142.88;;;10.67;100.00
43125;BME280;49182;50.788;7.318;2024-02-15T00:47:33;101139.13;;;10.69;100.00
43125;BME280;49182;50.788;7.318;2024-02-15T00:52:37;101128.94;;;10.65;100.00
43125;BME280;49182;50.788;7.318;2024-02-15T00:57:38;101140.34;;;10.65;100.00
43125;BME280;49182;50.788;7.318;2024-02-15T01:02:40;101144.66;;;10.66;100.00
43125;BME280;49182;50.788;7.318;2024-02-15T01:07:43;101136.00;;;10.64;100.00
43125;BME280;49182;50.788;7.318;2024-02-15T01:12:45;101139.03;;;10.60;100.00
43125;BME280;49182;50.788;7.318;2024-02-15T01:17:47;101141.66;;;10.60;100.00
43125;BME280;49182;50.788;7.318;2024-02-15T01:22:50;101144.69;;;10.55;100.00
43125;BME280;49182;50.788;7.318;2024-02-15T01:27:52;101143.59;;;10.58;100.00
43125;BME280;49182;50.788;7.318;2024-02-15T01:32:54;101134.44;;;10.62;100.00
43125;BME280;49182;50.788;7.318;2024-02-15T01:37:59;101147.31;;;10.55;100.00
43125;BME280;49182;50.788;7.318;2024-02-15T01:43:00;101142.28;;;10.52;100.00
43125;BME280;49182;50.788;7.318;2024-02-15T01:48:03;101139.50;;;10.53;100.00
43125;BME280;49182;50.788;7.318;2024-02-15T01:53:07;101117.94;;;10.48;100.00
43125;BME280;49182;50.788;7.318;2024-02-15T01:58:09;101124.16;;;10.47;100.00
43125;BME280;49182;50.788;7.318;2024-02-15T02:03:12;101127.88;;;10.45;100.00
43125;BME280;49182;50.788;7.318;2024-02-15T02:08:17;101120.91;;;10.44;100.00
43125;BME280;49182;50.788;7.318;2024-02-15T02:13:19;101121.06;;;10.42;100.00
43125;BME280;49182;50.788;7.318;2024-02-15T02:18:21;101110.59;;;10.41;100.00
43125;BME280;49182;50.788;7.318;2024-02-15T02:23:26;101095.97;;;10.37;100.00
43125;BME280;49182;50.788;7.318;2024-02-15T02:28:29;101087.56;;;10.32;100.00
43125;BME280;49182;50.788;7.318;2024-02-15T02:33:31;101094.88;;;10.39;100.00
43125;BME280;49182;50.788;7.318;2024-02-15T02:38:33;101086.13;;;10.39;100.00
43125;BME280;49182;50.788;7.318;2024-02-15T02:43:36;101080.00;;;10.38;100.00
43125;BME280;49182;50.788;7.318;2024-02-15T02:48:38;101092.59;;;10.35;100.00
43125;BME280;49182;50.788;7.318;2024-02-15T02:53:40;101083.75;;;10.36;100.00
43125;BME280;49182;50.788;7.318;2024-02-15T02:58:43;101032.13;;;10.09;100.00
43125;BME280;49182;50.788;7.318;2024-02-15T03:03:45;101077.84;;;10.32;100.00
43125;BME280;49182;50.788;7.318;2024-02-15T03:08:47;101068.84;;;10.35;100.00
43125;BME280;49182;50.788;7.318;2024-02-15T03:13:50;101069.69;;;10.35;100.00
43125;BME280;49182;50.788;7.318;2024-02-15T03:18:52;101074.38;;;10.32;100.00
43125;BME280;49182;50.788;7.318;2024-02-15T03:23:54;101070.06;;;10.20;100.00
43125;BME280;49182;50.788;7.318;2024-02-15T03:28:59;101071.84;;;10.19;100.00
43125;BME280;49182;50.788;7.318;2024-02-15T03:34:01;101061.88;;;10.11;100.00
43125;BME280;49182;50.788;7.318;2024-02-15T03:39:03;101057.31;;;10.13;100.00
43125;BME280;49182;50.788;7.318;2024-02-15T03:44:06;101066.06;;;10.14;100.00
43125;BME280;49182;50.788;7.318;2024-02-15T03:49:08;101065.03;;;10.17;100.00
43125;BME280;49182;50.788;7.318;2024-02-15T03:54:10;101067.84;;;10.13;100.00
43125;BME280;49182;50.788;7.318;2024-02-15T03:59:13;101063.53;;;10.12;100.00
43125;BME280;49182;50.788;7.318;2024-02-15T04:04:15;101061.75;;;10.13;100.00
43125;BME280;49182;50.788;7.318;2024-02-15T04:09:16;101066.44;;;10.09;100.00
43125;BME280;49182;50.788;7.318;2024-02-15T04:14:20;101079.38;;;10.12;100.00
43125;BME280;49182;50.788;7.318;2024-02-15T04:19:22;101064.84;;;10.07;100.00
43125;BME280;49182;50.788;7.318;2024-02-15T04:24:24;101069.53;;;10.14;100.00
43125;BME280;49182;50.788;7.318;2024-02-15T04:29:27;101057.09;;;10.05;100.00
43125;BME280;49182;50.788;7.318;2024-02-15T04:34:29;101070.75;;;9.99;100.00
43125;BME280;49182;50.788;7.318;2024-02-15T04:39:30;101070.03;;;9.97;100.00
43125;BME280;49182;50.788;7.318;2024-02-15T04:44:33;101057.56;;;9.99;100.00
43125;BME280;49182;50.788;7.318;2024-02-15T04:49:35;101023.97;;;9.79;100.00
43125;BME280;49182;50.788;7.318;2024-02-15T04:54:37;101053.63;;;10.05;100.00
43125;BME280;49182;50.788;7.318;2024-02-15T04:59:40;101046.41;;;10.07;100.00
43125;BME280;49182;50.788;7.318;2024-02-15T05:04:42;101052.03;;;10.02;100.00
43125;BME280;49182;50.788;7.318;2024-02-15T05:09:44;101042.22;;;10.04;100.00
43125;BME280;49182;50.788;7.318;2024-02-15T05:14:47;101047.72;;;10.01;100.00
43125;BME280;49182;50.788;7.318;2024-02-15T05:19:49;101042.56;;;10.00;100.00
43125;BME280;49182;50.788;7.318;2024-02-15T05:24:51;101045.81;;;10.03;100.00
43125;BME280;49182;50.788;7.318;2024-02-15T05:29:54;101043.91;;;10.05;100.00
43125;BME280;49182;50.788;7.318;2024-02-15T05:34:56;101046.16;;;10.10;100.00
43125;BME280;49182;50.788;7.318;2024-02-15T05:39:58;101040.53;;;10.03;100.00
43125;BME280;49182;50.788;7.318;2024-02-15T05:45:28;101041.59;;;10.01;100.00
43125;BME280;49182;50.788;7.318;2024-02-15T05:50:30;101045.69;;;10.05;100.00
43125;BME280;49182;50.788;7.318;2024-02-15T05:55:31;100942.47;;;9.43;100.00
43125;BME280;49182;50.788;7.318;2024-02-15T06:00:34;100994.84;;;9.69;100.00
43125;BME280;49182;50.788;7.318;2024-02-15T06:05:36;101022.06;;;10.03;100.00
43125;BME280;49182;50.788;7.318;2024-02-15T06:10:39;100976.75;;;9.76;100.00
43125;BME280;49182;50.788;7.318;2024-02-15T06:15:42;101031.28;;;10.09;100.00
43125;BME280;49182;50.788;7.318;2024-02-15T06:20:43;101023.50;;;10.07;100.00
43125;BME280;49182;50.788;7.318;2024-02-15T06:25:46;101029.88;;;10.05;100.00
43125;BME280;49182;50.788;7.318;2024-02-15T06:30:50;101023.50;;;10.07;100.00
43125;BME280;49182;50.788;7.318;2024-02-15T06:35:51;101028.28;;;10.02;100.00
43125;BME280;49182;50.788;7.318;2024-02-15T06:40:53;101030.22;;;10.00;100.00
43125;BME280;49182;50.788;7.318;2024-02-15T06:45:57;101018.22;;;9.96;100.00
43125;BME280;49182;50.788;7.318;2024-02-15T06:50:59;101019.91;;;9.97;100.00
43125;BME280;49182;50.788;7.318;2024-02-15T06:56:00;101027.94;;;9.96;100.00
43125;BME280;49182;50.788;7.318;2024-02-15T07:01:03;101026.88;;;9.98;100.00
43125;BME280;49182;50.788;7.318;2024-02-15T07:06:06;101019.66;;;9.89;100.00
43125;BME280;49182;50.788;7.318;2024-02-15T07:11:08;100966.09;;;9.66;100.00
43125;BME280;49182;50.788;7.318;2024-02-15T07:16:11;101039.69;;;10.14;100.00
43125;BME280;49182;50.788;7.318;2024-02-15T07:21:12;101043.56;;;10.21;100.00
43125;BME280;49182;50.788;7.318;2024-02-15T07:26:14;101047.16;;;10.20;100.00
43125;BME280;49182;50.788;7.318;2024-02-15T07:31:17;101016.69;;;10.05;100.00
43125;BME280;49182;50.788;7.318;2024-02-15T07:36:19;101036.00;;;10.17;100.00
43125;BME280;49182;50.788;7.318;2024-02-15T07:41:21;101058.53;;;10.32;100.00
43125;BME280;49182;50.788;7.318;2024-02-15T07:46:24;101048.81;;;10.32;100.00
43125;BME280;49182;50.788;7.318;2024-02-15T07:51:26;101072.31;;;10.46;100.00
43125;BME280;49182;50.788;7.318;2024-02-15T07:56:27;101068.38;;;10.41;100.00
43125;BME280;49182;50.788;7.318;2024-02-15T08:01:30;101084.41;;;10.60;100.00
43125;BME280;49182;50.788;7.318;2024-02-15T08:06:32;101081.16;;;10.68;100.00
43125;BME280;49182;50.788;7.318;2024-02-15T08:11:35;101072.75;;;10.74;100.00
43125;BME280;49182;50.788;7.318;2024-02-15T08:16:38;101076.69;;;10.79;100.00
43125;BME280;49182;50.788;7.318;2024-02-15T08:21:40;101074.72;;;10.92;100.00
43125;BME280;49182;50.788;7.318;2024-02-15T08:26:42;101073.97;;;11.02;100.00
43125;BME280;49182;50.788;7.318;2024-02-15T08:31:45;101074.03;;;11.11;100.00
43125;BME280;49182;50.788;7.318;2024-02-15T08:36:47;101068.59;;;11.24;100.00
43125;BME280;49182;50.788;7.318;2024-02-15T08:41:50;101060.47;;;11.36;100.00
43125;BME280;49182;50.788;7.318;2024-02-15T08:46:53;101065.25;;;11.43;100.00
43125;BME280;49182;50.788;7.318;2024-02-15T08:51:55;101053.63;;;11.55;100.00
43125;BME280;49182;50.788;7.318;2024-02-15T08:56:56;101056.34;;;11.64;100.00
43125;BME280;49182;50.788;7.318;2024-02-15T09:01:59;101046.22;;;11.69;100.00
43125;BME280;49182;50.788;7.318;2024-02-15T09:07:01;101041.19;;;11.87;100.00
43125;BME280;49182;50.788;7.318;2024-02-15T09:12:03;101038.66;;;11.86;100.00
43125;BME280;49182;50.788;7.318;2024-02-15T09:17:06;101028.88;;;12.07;100.00
43125;BME280;49182;50.788;7.318;2024-02-15T09:22:09;101035.72;;;12.09;100.00
43125;BME280;49182;50.788;7.318;2024-02-15T09:27:11;101035.88;;;12.18;100.00
43125;BME280;49182;50.788;7.318;2024-02-15T09:32:14;100985.25;;;12.01;100.00
43125;BME280;49182;50.788;7.318;2024-02-15T09:37:15;101007.81;;;12.45;100.00
43125;BME280;49182;50.788;7.318;2024-02-15T09:42:18;101011.34;;;12.65;100.00
43125;BME280;49182;50.788;7.318;2024-02-15T09:47:22;101010.50;;;12.93;100.00
43125;BME280;49182;50.788;7.318;2024-02-15T09:52:25;101010.75;;;13.10;100.00
43125;BME280;49182;50.788;7.318;2024-02-15T09:57:27;101013.56;;;13.27;100.00
43125;BME280;49182;50.788;7.318;2024-02-15T10:02:31;100966.53;;;13.10;100.00
43125;BME280;49182;50.788;7.318;2024-02-15T10:07:33;101013.34;;;13.67;100.00
43125;BME280;49182;50.788;7.318;2024-02-15T10:12:37;101007.03;;;13.78;100.00
43125;BME280;49182;50.788;7.318;2024-02-15T10:17:40;101006.31;;;13.86;100.00
43125;BME280;49182;50.788;7.318;2024-02-15T10:22:42;101009.31;;;14.00;98.52
43125;BME280;49182;50.788;7.318;2024-02-15T10:27:44;100992.97;;;13.95;100.00
43125;BME280;49182;50.788;7.318;2024-02-15T10:32:50;100972.25;;;13.81;100.00
43125;BME280;49182;50.788;7.318;2024-02-15T10:38:05;100936.00;;;13.62;99.58
43125;BME280;49182;50.788;7.318;2024-02-15T10:43:07;101010.50;;;14.15;100.00
43125;BME280;49182;50.788;7.318;2024-02-15T10:48:10;101002.75;;;14.32;97.53
43125;BME280;49182;50.788;7.318;2024-02-15T10:53:21;100999.59;;;14.46;92.87
43125;BME280;49182;50.788;7.318;2024-02-15T10:58:25;100992.81;;;14.51;90.91
43125;BME280;49182;50.788;7.318;2024-02-15T11:03:35;100979.41;;;14.53;90.70
43125;BME280;49182;50.788;7.318;2024-02-15T11:08:37;100972.03;;;14.47;91.78
43125;BME280;49182;50.788;7.318;2024-02-15T11:13:40;100924.63;;;14.25;88.44
43125;BME280;49182;50.788;7.318;2024-02-15T11:18:45;100957.06;;;14.46;90.50
43125;BME280;49182;50.788;7.318;2024-02-15T11:23:47;100950.09;;;14.45;90.58
43125;BME280;49182;50.788;7.318;2024-02-15T11:28:49;100958.00;;;14.54;90.92
43125;BME280;49182;50.788;7.318;2024-02-15T11:33:52;100947.28;;;14.64;90.85
43125;BME280;49182;50.788;7.318;2024-02-15T11:38:54;100940.75;;;14.76;88.74
43125;BME280;49182;50.788;7.318;2024-02-15T11:43:56;100927.38;;;14.86;84.83
43125;BME280;49182;50.788;7.318;2024-02-15T11:49:00;100924.75;;;14.94;87.05
43125;BME280;49182;50.788;7.318;2024-02-15T11:54:04;100866.31;;;14.76;85.12
43125;BME280;49182;50.788;7.318;2024-02-15T11:59:06;100905.50;;;15.18;84.64
43125;BME280;49182;50.788;7.318;2024-02-15T12:04:09;100906.59;;;15.33;83.71
43125;BME280;49182;50.788;7.318;2024-02-15T12:09:11;100897.19;;;15.47;82.41
43125;BME280;49182;50.788;7.318;2024-02-15T12:14:12;100898.66;;;15.49;81.76
43125;BME280;49182;50.788;7.318;2024-02-15T12:19:15;100893.44;;;15.57;81.25
43125;BME280;49182;50.788;7.318;2024-02-15T12:24:17;100898.94;;;15.64;82.20
43125;BME280;49182;50.788;7.318;2024-02-15T12:29:19;100892.31;;;15.68;81.98
43125;BME280;49182;50.788;7.318;2024-02-15T12:34:22;100880.84;;;15.75;81.03
43125;BME280;49182;50.788;7.318;2024-02-15T12:39:24;100827.84;;;15.48;81.29
43125;BME280;49182;50.788;7.318;2024-02-15T12:44:26;100856.56;;;15.70;82.66
43125;BME280;49182;50.788;7.318;2024-02-15T12:49:30;100834.94;;;15.82;82.17
43125;BME280;49182;50.788;7.318;2024-02-15T12:54:32;100836.16;;;16.11;79.21
43125;BME280;49182;50.788;7.318;2024-02-15T12:59:34;100840.69;;;16.19;81.84
43125;BME280;49182;50.788;7.318;2024-02-15T13:04:37;100841.34;;;16.37;78.55
43125;BME280;49182;50.788;7.318;2024-02-15T13:09:40;100807.69;;;16.36;76.47
43125;BME280;49182;50.788;7.318;2024-02-15T13:14:42;100805.06;;;16.61;75.38
43125;BME280;49182;50.788;7.318;2024-02-15T13:19:46;100782.25;;;16.34;75.57
43125;BME280;49182;50.788;7.318;2024-02-15T13:24:47;100809.19;;;16.55;74.63
43125;BME280;49182;50.788;7.318;2024-02-15T13:29:49;100806.72;;;16.53;75.82
43125;BME280;49182;50.788;7.318;2024-02-15T13:34:54;100804.53;;;16.49;76.04
43125;BME280;49182;50.788;7.318;2024-02-15T13:39:56;100790.03;;;16.43;75.40
43125;BME280;49182;50.788;7.318;2024-02-15T13:44:57;100783.41;;;16.39;75.49
43125;BME280;49182;50.788;7.318;2024-02-15T13:50:01;100757.09;;;16.28;74.66
43125;BME280;49182;50.788;7.318;2024-02-15T13:55:03;100770.09;;;16.23;75.71
43125;BME280;49182;50.788;7.318;2024-02-15T14:00:08;100753.59;;;16.19;74.32
43125;BME280;49182;50.788;7.318;2024-02-15T14:05:14;100745.09;;;16.08;75.48
43125;BME280;49182;50.788;7.318;2024-02-15T14:10:16;100748.75;;;15.99;74.75
43125;BME280;49182;50.788;7.318;2024-02-15T14:15:18;100716.28;;;15.87;74.02
43125;BME280;49182;50.788;7.318;2024-02-15T14:20:22;100728.13;;;16.09;72.46
43125;BME280;49182;50.788;7.318;2024-02-15T14:25:23;100707.16;;;15.98;73.02
43125;BME280;49182;50.788;7.318;2024-02-15T14:30:25;100714.66;;;16.10;72.37
43125;BME280;49182;50.788;7.318;2024-02-15T14:35:29;100700.13;;;16.05;72.68
43125;BME280;49182;50.788;7.318;2024-02-15T14:40:32;100700.31;;;16.11;70.97
43125;BME280;49182;50.788;7.318;2024-02-15T14:45:46;100699.50;;;16.03;71.78
43125;BME280;49182;50.788;7.318;2024-02-15T14:50:50;100703.81;;;15.96;72.67
43125;BME280;49182;50.788;7.318;2024-02-15T14:55:53;100701.16;;;16.04;71.58
43125;BME280;49182;50.788;7.318;2024-02-15T15:00:55;100692.69;;;15.92;71.85
43125;BME280;49182;50.788;7.318;2024-02-15T15:06:01;100699.66;;;15.85;72.38
43125;BME280;49182;50.788;7.318;2024-02-15T15:11:03;100703.47;;;15.83;71.80
43125;BME280;49182;50.788;7.318;2024-02-15T15:16:05;100670.84;;;15.56;72.09
43125;BME280;49182;50.788;7.318;2024-02-15T15:21:09;100691.66;;;15.61;72.95
43125;BME280;49182;50.788;7.318;2024-02-15T15:26:11;100701.31;;;15.70;71.71
43125;BME280;49182;50.788;7.318;2024-02-15T15:31:13;100693.16;;;15.55;72.64
43125;BME280;49182;50.788;7.318;2024-02-15T15:36:16;100683.94;;;15.50;71.89
43125;BME280;49182;50.788;7.318;2024-02-15T15:41:18;100669.47;;;15.36;72.89
43125;BME280;49182;50.788;7.318;2024-02-15T15:46:20;100664.78;;;15.22;73.56
43125;BME280;49182;50.788;7.318;2024-02-15T15:51:23;100674.59;;;15.21;72.55
43125;BME280;49182;50.788;7.318;2024-02-15T15:56:24;100644.81;;;15.10;73.04
43125;BME280;49182;50.788;7.318;2024-02-15T16:01:26;100659.28;;;15.15;74.01
43125;BME280;49182;50.788;7.318;2024-02-15T16:06:29;100653.75;;;15.01;74.39
43125;BME280;49182;50.788;7.318;2024-02-15T16:11:31;100663.59;;;15.08;73.89
43125;BME280;49182;50.788;7.318;2024-02-15T16:16:33;100644.06;;;14.83;75.97
43125;BME280;49182;50.788;7.318;2024-02-15T16:21:36;100661.34;;;14.87;75.37
43125;BME280;49182;50.788;7.318;2024-02-15T16:26:38;100654.84;;;14.82;75.26
43125;BME280;49182;50.788;7.318;2024-02-15T16:31:40;100659.16;;;14.75;75.50
43125;BME280;49182;50.788;7.318;2024-02-15T16:36:43;100642.81;;;14.62;75.75
43125;BME280;49182;50.788;7.318;2024-02-15T16:41:46;100557.19;;;14.08;75.58
43125;BME280;49182;50.788;7.318;2024-02-15T16:46:47;100642.44;;;14.48;75.40
43125;BME280;49182;50.788;7.318;2024-02-15T16:51:50;100639.34;;;14.35;76.25
43125;BME280;49182;50.788;7.318;2024-02-15T16:56:52;100631.28;;;14.19;77.00
43125;BME280;49182;50.788;7.318;2024-02-15T17:02:09;100628.22;;;14.06;77.89
43125;BME280;49182;50.788;7.318;2024-02-15T17:07:12;100630.31;;;13.94;78.68
43125;BME280;49182;50.788;7.318;2024-02-15T17:12:14;100630.38;;;13.85;79.10
43125;BME280;49182;50.788;7.318;2024-02-15T17:17:15;100637.72;;;13.91;78.90
43125;BME280;49182;50.788;7.318;2024-02-15T17:22:18;100612.63;;;13.85;79.03
43125;BME280;49182;50.788;7.318;2024-02-15T17:27:20;100622.97;;;13.70;80.00
43125;BME280;49182;50.788;7.318;2024-02-15T17:32:22;100630.56;;;13.65;79.94
43125;BME280;49182;50.788;7.318;2024-02-15T17:37:25;100614.41;;;13.59;79.73
43125;BME280;49182;50.788;7.318;2024-02-15T17:42:27;100619.59;;;13.60;80.54
43125;BME280;49182;50.788;7.318;2024-02-15T17:47:29;100620.66;;;13.50;81.08
43125;BME280;49182;50.788;7.318;2024-02-15T17:52:32;100615.81;;;13.63;79.19
43125;BME280;49182;50.788;7.318;2024-02-15T17:57:34;100614.66;;;13.48;80.44
43125;BME280;49182;50.788;7.318;2024-02-15T18:02:36;100607.94;;;13.35;82.68
43125;BME280;49182;50.788;7.318;2024-02-15T18:07:39;100602.09;;;13.32;81.73
43125;BME280;49182;50.788;7.318;2024-02-15T18:12:41;100580.97;;;13.22;81.22
43125;BME280;49182;50.788;7.318;2024-02-15T18:17:43;100597.78;;;13.31;81.59
43125;BME280;49182;50.788;7.318;2024-02-15T18:22:46;100587.09;;;13.23;82.71
43125;BME280;49182;50.788;7.318;2024-02-15T18:27:48;100579.97;;;13.23;81.87
43125;BME280;49182;50.788;7.318;2024-02-15T18:32:49;100586.03;;;13.16;82.52
43125;BME280;49182;50.788;7.318;2024-02-15T18:37:53;100576.81;;;13.20;81.74
43125;BME280;49182;50.788;7.318;2024-02-15T18:42:55;100568.63;;;13.13;81.62
43125;BME280;49182;50.788;7.318;2024-02-15T18:47:57;100571.53;;;12.92;82.96
43125;BME280;49182;50.788;7.318;2024-02-15T18:53:01;100564.50;;;13.01;82.05
43125;BME280;49182;50.788;7.318;2024-02-15T18:58:03;100562.53;;;13.03;81.14
43125;BME280;49182;50.788;7.318;2024-02-15T19:03:05;100560.34;;;13.16;79.59
43125;BME280;49182;50.788;7.318;2024-02-15T19:08:08;100560.94;;;13.10;80.51
43125;BME280;49182;50.788;7.318;2024-02-15T19:13:10;100561.16;;;12.99;81.04
43125;BME280;49182;50.788;7.318;2024-02-15T19:18:12;100565.94;;;12.95;81.50
43125;BME280;49182;50.788;7.318;2024-02-15T19:23:15;100568.59;;;12.95;81.05
43125;BME280;49182;50.788;7.318;2024-02-15T19:28:17;100533.59;;;12.92;79.85
43125;BME280;49182;50.788;7.318;2024-02-15T19:33:19;100556.47;;;12.93;81.50
43125;BME280;49182;50.788;7.318;2024-02-15T19:38:22;100532.53;;;12.85;80.43
43125;BME280;49182;50.788;7.318;2024-02-15T19:43:24;100558.88;;;13.04;79.97
43125;BME280;49182;50.788;7.318;2024-02-15T19:48:25;100541.03;;;12.71;81.24
43125;BME280;49182;50.788;7.318;2024-02-15T19:53:29;100566.00;;;12.86;81.69
43125;BME280;49182;50.788;7.318;2024-02-15T19:58:30;100572.22;;;12.94;81.23
43125;BME280;49182;50.788;7.318;2024-02-15T20:03:32;100562.75;;;12.92;81.05
43125;BME280;49182;50.788;7.318;2024-02-15T20:08:35;100561.06;;;12.91;81.27
43125;BME280;49182;50.788;7.318;2024-02-15T20:13:37;100553.94;;;12.74;83.17
43125;BME280;49182;50.788;7.318;2024-02-15T20:18:39;100525.56;;;12.66;82.82
43125;BME280;49182;50.788;7.318;2024-02-15T20:23:43;100537.78;;;12.77;83.10
43125;BME280;49182;50.788;7.318;2024-02-15T20:28:44;100523.59;;;12.68;83.36
43125;BME280;49182;50.788;7.318;2024-02-15T20:33:46;100524.47;;;12.59;84.25
43125;BME280;49182;50.788;7.318;2024-02-15T20:38:50;100531.66;;;12.49;84.80
43125;BME280;49182;50.788;7.318;2024-02-15T20:43:51;100529.50;;;12.35;86.23
43125;BME280;49182;50.788;7.318;2024-02-15T20:48:53;100523.41;;;12.34;85.02
43125;BME280;49182;50.788;7.318;2024-02-15T20:53:57;100531.81;;;12.20;86.09
43125;BME280;49182;50.788;7.318;2024-02-15T20:58:59;100511.38;;;12.12;87.00
43125;BME280;49182;50.788;7.318;2024-02-15T21:04:00;100500.88;;;11.93;87.71
43125;BME280;49182;50.788;7.318;2024-02-15T21:09:03;100510.69;;;11.73;90.19
43125;BME280;49182;50.788;7.318;2024-02-15T21:14:05;100476.09;;;11.38;90.62
43125;BME280;49182;50.788;7.318;2024-02-15T21:19:07;100494.63;;;11.38;91.18
43125;BME280;49182;50.788;7.318;2024-02-15T21:24:10;100489.75;;;11.24;91.36
43125;BME280;49182;50.788;7.318;2024-02-15T21:29:12;100468.09;;;11.11;92.92
43125;BME280;49182;50.788;7.318;2024-02-15T21:34:14;100496.03;;;11.13;93.49
43125;BME280;49182;50.788;7.318;2024-02-15T21:39:17;100501.47;;;11.02;94.59
43125;BME280;49182;50.788;7.318;2024-02-15T21:44:19;100499.81;;;10.91;95.03
43125;BME280;49182;50.788;7.318;2024-02-15T21:49:20;100413.78;;;10.41;95.76
43125;BME280;49182;50.788;7.318;2024-02-15T21:54:24;100484.63;;;10.74;95.91
43125;BME280;49182;50.788;7.318;2024-02-15T21:59:25;100472.69;;;10.70;97.35
43125;BME280;49182;50.788;7.318;2024-02-15T22:04:27;100472.84;;;10.59;99.66
43125;BME280;49182;50.788;7.318;2024-02-15T22:09:30;100483.91;;;10.43;99.83
43125;BME280;49182;50.788;7.318;2024-02-15T22:14:32;100483.91;;;10.34;99.88
43125;BME280;49182;50.788;7.318;2024-02-15T22:19:34;100484.72;;;10.25;100.00
43125;BME280;49182;50.788;7.318;2024-02-15T22:24:37;100494.25;;;10.16;100.00
43125;BME280;49182;50.788;7.318;2024-02-15T22:29:39;100492.03;;;10.11;100.00
43125;BME280;49182;50.788;7.318;2024-02-15T22:34:41;100491.00;;;9.93;100.00
43125;BME280;49182;50.788;7.318;2024-02-15T22:39:44;100487.06;;;9.88;100.00
43125;BME280;49182;50.788;7.318;2024-02-15T22:44:46;100490.63;;;9.77;100.00
43125;BME280;49182;50.788;7.318;2024-02-15T22:49:48;100477.13;;;9.70;100.00
43125;BME280;49182;50.788;7.318;2024-02-15T22:54:51;100485.25;;;9.58;100.00
43125;BME280;49182;50.788;7.318;2024-02-15T22:59:53;100482.06;;;9.54;100.00
43125;BME280;49182;50.788;7.318;2024-02-15T23:04:55;100425.03;;;9.23;100.00
43125;BME280;49182;50.788;7.318;2024-02-15T23:09:58;100476.22;;;9.51;100.00
43125;BME280;49182;50.788;7.318;2024-02-15T23:15:00;100484.19;;;9.60;100.00
43125;BME280;49182;50.788;7.318;2024-02-15T23:20:02;100483.16;;;9.82;100.00
43125;BME280;49182;50.788;7.318;2024-02-15T23:25:06;100467.41;;;10.01;100.00
43125;BME280;49182;50.788;7.318;2024-02-15T23:30:09;100487.56;;;10.52;99.34
43125;BME280;49182;50.788;7.318;2024-02-15T23:35:11;100489.63;;;10.68;99.18
43125;BME280;49182;50.788;7.318;2024-02-15T23:40:14;100481.88;;;10.76;98.76
43125;BME280;49182;50.788;7.318;2024-02-15T23:45:16;100485.19;;;10.87;97.66
43125;BME280;49182;50.788;7.318;2024-02-15T23:50:18;100478.69;;;11.11;94.19
43125;BME280;49182;50.788;7.318;2024-02-15T23:55:22;100478.34;;;11.33;91.83
